sensor_id;sensor_type;location;lat;lon;timestamp;pressure;altitude;pressure_sealevel;temperature;humidity
62544;BME280;48597;49.030;1.822;2023-04-23T00:00:26;99998.31;;;19.26;44.09
62544;BME280;48597;49.030;1.822;2023-04-23T00:02:53;99997.06;;;19.27;44.10
62544;BME280;48597;49.030;1.822;2023-04-23T00:05:19;99999.91;;;19.27;44.05
62544;BME280;48597;49.030;1.822;2023-04-23T00:07:45;100006.44;;;19.28;44.06
62544;BME280;48597;49.030;1.822;2023-04-23T00:10:11;100005.16;;;19.29;43.91
62544;BME280;48597;49.030;1.822;2023-04-23T00:12:37;100008.50;;;19.27;44.12
62544;BME280;48597;49.030;1.822;2023-04-23T00:15:04;100013.75;;;19.29;44.11
62544;BME280;48597;49.030;1.822;2023-04-23T00:17:29;100003.91;;;19.30;44.13
62544;BME280;48597;49.030;1.822;2023-04-23T00:19:55;100006.31;;;19.32;44.14
62544;BME280;48597;49.030;1.822;2023-04-23T00:22:20;100009.16;;;19.32;44.21
62544;BME280;48597;49.030;1.822;2023-04-23T00:24:46;100011.56;;;19.33;44.05
62544;BME280;48597;49.030;1.822;2023-04-23T00:27:11;100000.91;;;19.34;44.27
62544;BME280;48597;49.030;1.822;2023-04-23T00:29:37;100000.91;;;19.34;44.04
62544;BME280;48597;49.030;1.822;2023-04-23T00:32:03;99995.50;;;19.36;44.28
62544;BME280;48597;49.030;1.822;2023-04-23T00:34:29;99992.66;;;19.36;44.26
62544;BME280;48597;49.030;1.822;2023-04-23T00:36:55;99982.03;;;19.36;44.25
62544;BME280;48597;49.030;1.822;2023-04-23T00:39:20;99992.53;;;19.39;44.25
62544;BME280;48597;49.030;1.822;2023-04-23T00:41:46;99994.56;;;19.39;44.21
62544;BME280;48597;49.030;1.822;2023-04-23T00:44:12;99984.75;;;19.40;44.28
62544;BME280;48597;49.030;1.822;2023-04-23T00:46:38;99986.34;;;19.41;44.28
62544;BME280;48597;49.030;1.822;2023-04-23T00:49:03;99983.81;;;19.43;44.23
62544;BME280;48597;49.030;1.822;2023-04-23T00:51:29;99982.56;;;19.44;44.12
62544;BME280;48597;49.030;1.822;2023-04-23T00:53:56;99976.03;;;19.43;44.35
62544;BME280;48597;49.030;1.822;2023-04-23T00:56:22;99971.13;;;19.44;44.34
62544;BME280;48597;49.030;1.822;2023-04-23T00:58:49;99976.69;;;19.47;44.25
62544;BME280;48597;49.030;1.822;2023-04-23T01:01:15;99968.88;;;19.48;44.13
62544;BME280;48597;49.030;1.822;2023-04-23T01:03:45;99956.69;;;19.47;44.20
62544;BME280;48597;49.030;1.822;2023-04-23T01:06:12;99961.13;;;19.48;44.23
62544;BME280;48597;49.030;1.822;2023-04-23T01:08:39;99956.22;;;19.49;44.23
62544;BME280;48597;49.030;1.822;2023-04-23T01:11:05;99952.09;;;19.50;44.24
62544;BME280;48597;49.030;1.822;2023-04-23T01:13:31;99940.66;;;19.50;44.26
62544;BME280;48597;49.030;1.822;2023-04-23T01:15:57;99938.94;;;19.52;44.12
62544;BME280;48597;49.030;1.822;2023-04-23T01:18:23;99939.28;;;19.54;44.14
62544;BME280;48597;49.030;1.822;2023-04-23T01:20:48;99936.41;;;19.54;44.14
62544;BME280;48597;49.030;1.822;2023-04-23T01:23:15;99938.00;;;19.55;44.23
62544;BME280;48597;49.030;1.822;2023-04-23T01:25:41;99926.56;;;19.55;44.18
62544;BME280;48597;49.030;1.822;2023-04-23T01:28:07;99933.88;;;19.56;44.18
62544;BME280;48597;49.030;1.822;2023-04-23T01:30:33;99934.69;;;19.57;44.16
62544;BME280;48597;49.030;1.822;2023-04-23T01:32:58;99935.47;;;19.57;44.13
62544;BME280;48597;49.030;1.822;2023-04-23T01:35:25;99930.56;;;19.58;44.19
62544;BME280;48597;49.030;1.822;2023-04-23T01:37:50;99929.75;;;19.57;44.22
62544;BME280;48597;49.030;1.822;2023-04-23T01:40:17;99931.34;;;19.58;44.07
62544;BME280;48597;49.030;1.822;2023-04-23T01:42:43;99920.72;;;19.59;44.07
62544;BME280;48597;49.030;1.822;2023-04-23T01:45:09;99927.22;;;19.59;43.90
62544;BME280;48597;49.030;1.822;2023-04-23T01:47:35;99920.72;;;19.59;44.02
62544;BME280;48597;49.030;1.822;2023-04-23T01:50:00;99921.50;;;19.59;44.00
62544;BME280;48597;49.030;1.822;2023-04-23T01:52:26;99915.78;;;19.59;43.97
62544;BME280;48597;49.030;1.822;2023-04-23T01:54:51;99914.50;;;19.60;43.89
62544;BME280;48597;49.030;1.822;2023-04-23T01:57:17;99905.91;;;19.60;44.01
62544;BME280;48597;49.030;1.822;2023-04-23T01:59:48;99908.00;;;19.60;43.97
62544;BME280;48597;49.030;1.822;2023-04-23T02:02:14;99912.44;;;19.61;43.98
62544;BME280;48597;49.030;1.822;2023-04-23T02:04:40;99917.34;;;19.60;44.01
62544;BME280;48597;49.030;1.822;2023-04-23T02:07:08;99918.16;;;19.61;43.95
62544;BME280;48597;49.030;1.822;2023-04-23T02:09:33;99921.00;;;19.61;43.91
62544;BME280;48597;49.030;1.822;2023-04-23T02:11:58;99919.44;;;19.60;43.91
62544;BME280;48597;49.030;1.822;2023-04-23T02:14:26;99911.63;;;19.60;43.99
62544;BME280;48597;49.030;1.822;2023-04-23T02:16:52;99915.28;;;19.61;43.87
62544;BME280;48597;49.030;1.822;2023-04-23T02:19:18;99914.50;;;19.60;43.90
62544;BME280;48597;49.030;1.822;2023-04-23T02:21:43;99913.72;;;19.60;43.85
62544;BME280;48597;49.030;1.822;2023-04-23T02:24:09;99907.22;;;19.59;43.64
62544;BME280;48597;49.030;1.822;2023-04-23T02:26:35;99910.06;;;19.59;43.79
62544;BME280;48597;49.030;1.822;2023-04-23T02:29:00;99915.00;;;19.59;43.54
62544;BME280;48597;49.030;1.822;2023-04-23T02:31:25;99921.50;;;19.59;43.70
62544;BME280;48597;49.030;1.822;2023-04-23T02:33:51;99919.91;;;19.58;43.89
62544;BME280;48597;49.030;1.822;2023-04-23T02:36:16;99904.81;;;19.58;43.66
62544;BME280;48597;49.030;1.822;2023-04-23T02:38:42;99907.69;;;19.58;43.71
62544;BME280;48597;49.030;1.822;2023-04-23T02:41:09;99908.47;;;19.58;43.66
62544;BME280;48597;49.030;1.822;2023-04-23T02:43:37;99901.97;;;19.58;43.65
62544;BME280;48597;49.030;1.822;2023-04-23T02:46:02;99911.34;;;19.58;43.83
62544;BME280;48597;49.030;1.822;2023-04-23T02:48:38;99910.34;;;19.52;43.64
62544;BME280;48597;49.030;1.822;2023-04-23T02:51:04;99907.81;;;19.54;43.58
62544;BME280;48597;49.030;1.822;2023-04-23T02:53:30;99900.84;;;19.55;43.63
62544;BME280;48597;49.030;1.822;2023-04-23T02:55:56;99901.63;;;19.56;43.61
62544;BME280;48597;49.030;1.822;2023-04-23T02:58:21;99887.81;;;19.54;43.44
62544;BME280;48597;49.030;1.822;2023-04-23T03:00:46;99896.41;;;19.54;43.74
62544;BME280;48597;49.030;1.822;2023-04-23T03:03:12;99888.63;;;19.55;43.63
62544;BME280;48597;49.030;1.822;2023-04-23T03:05:37;99876.84;;;19.53;43.64
62544;BME280;48597;49.030;1.822;2023-04-23T03:08:03;99887.03;;;19.54;43.60
62544;BME280;48597;49.030;1.822;2023-04-23T03:10:28;99897.66;;;19.53;43.70
62544;BME280;48597;49.030;1.822;2023-04-23T03:12:54;99896.84;;;19.53;43.64
62544;BME280;48597;49.030;1.822;2023-04-23T03:15:20;99899.72;;;19.53;43.62
62544;BME280;48597;49.030;1.822;2023-04-23T03:17:45;99898.94;;;19.52;43.65
62544;BME280;48597;49.030;1.822;2023-04-23T03:20:11;99893.22;;;19.52;43.44
62544;BME280;48597;49.030;1.822;2023-04-23T03:22:36;99891.63;;;19.51;43.49
62544;BME280;48597;49.030;1.822;2023-04-23T03:25:02;99890.81;;;19.51;43.54
62544;BME280;48597;49.030;1.822;2023-04-23T03:27:28;99891.63;;;19.51;43.60
62544;BME280;48597;49.030;1.822;2023-04-23T03:29:53;99880.66;;;19.50;43.50
62544;BME280;48597;49.030;1.822;2023-04-23T03:32:18;99879.06;;;19.49;43.47
62544;BME280;48597;49.030;1.822;2023-04-23T03:34:44;99882.72;;;19.49;43.59
62544;BME280;48597;49.030;1.822;2023-04-23T03:37:09;99880.66;;;19.50;43.52
62544;BME280;48597;49.030;1.822;2023-04-23T03:39:34;99869.66;;;19.48;43.62
62544;BME280;48597;49.030;1.822;2023-04-23T03:42:00;99866.78;;;19.48;43.43
62544;BME280;48597;49.030;1.822;2023-04-23T03:44:26;99856.66;;;19.47;43.64
62544;BME280;48597;49.030;1.822;2023-04-23T03:46:51;99853.81;;;19.47;43.47
62544;BME280;48597;49.030;1.822;2023-04-23T03:49:16;99859.53;;;19.47;43.42
62544;BME280;48597;49.030;1.822;2023-04-23T03:51:42;99861.59;;;19.47;43.43
62544;BME280;48597;49.030;1.822;2023-04-23T03:54:07;99850.16;;;19.47;43.47
62544;BME280;48597;49.030;1.822;2023-04-23T03:56:32;99851.41;;;19.46;43.44
62544;BME280;48597;49.030;1.822;2023-04-23T03:58:58;99847.75;;;19.45;43.36
62544;BME280;48597;49.030;1.822;2023-04-23T04:01:23;99846.97;;;19.45;43.34
62544;BME280;48597;49.030;1.822;2023-04-23T04:03:48;99855.53;;;19.45;43.32
62544;BME280;48597;49.030;1.822;2023-04-23T04:06:14;99841.25;;;19.45;43.24
62544;BME280;48597;49.030;1.822;2023-04-23T04:08:39;99831.88;;;19.44;43.48
62544;BME280;48597;49.030;1.822;2023-04-23T04:11:05;99841.72;;;19.43;43.22
62544;BME280;48597;49.030;1.822;2023-04-23T04:13:30;99837.25;;;19.42;43.21
62544;BME280;48597;49.030;1.822;2023-04-23T04:15:55;99825.84;;;19.42;43.22
62544;BME280;48597;49.030;1.822;2023-04-23T04:18:21;99830.75;;;19.42;43.22
62544;BME280;48597;49.030;1.822;2023-04-23T04:20:46;99829.16;;;19.41;43.20
62544;BME280;48597;49.030;1.822;2023-04-23T04:23:11;99833.63;;;19.42;43.24
62544;BME280;48597;49.030;1.822;2023-04-23T04:25:37;99830.75;;;19.42;43.08
62544;BME280;48597;49.030;1.822;2023-04-23T04:28:05;99822.66;;;19.40;43.04
62544;BME280;48597;49.030;1.822;2023-04-23T04:30:32;99818.19;;;19.39;43.00
62544;BME280;48597;49.030;1.822;2023-04-23T04:32:57;99826.78;;;19.39;43.07
62544;BME280;48597;49.030;1.822;2023-04-23T04:35:24;99810.09;;;19.38;43.13
62544;BME280;48597;49.030;1.822;2023-04-23T04:37:49;99812.16;;;19.37;43.05
62544;BME280;48597;49.030;1.822;2023-04-23T04:40:18;99802.78;;;19.37;43.06
62544;BME280;48597;49.030;1.822;2023-04-23T04:42:44;99802.78;;;19.37;42.99
62544;BME280;48597;49.030;1.822;2023-04-23T04:45:11;99786.13;;;19.35;43.05
62544;BME280;48597;49.030;1.822;2023-04-23T04:47:36;99794.22;;;19.37;42.95
62544;BME280;48597;49.030;1.822;2023-04-23T04:50:03;99793.91;;;19.35;42.91
62544;BME280;48597;49.030;1.822;2023-04-23T04:52:28;99796.75;;;19.35;42.97
62544;BME280;48597;49.030;1.822;2023-04-23T04:54:54;99802.47;;;19.35;42.64
62544;BME280;48597;49.030;1.822;2023-04-23T04:57:19;99796.00;;;19.34;42.88
62544;BME280;48597;49.030;1.822;2023-04-23T04:59:47;99791.03;;;19.35;42.84
62544;BME280;48597;49.030;1.822;2023-04-23T05:02:12;99793.13;;;19.34;42.98
62544;BME280;48597;49.030;1.822;2023-04-23T05:04:38;99794.41;;;19.33;42.98
62544;BME280;48597;49.030;1.822;2023-04-23T05:07:03;99788.69;;;19.33;43.10
62544;BME280;48597;49.030;1.822;2023-04-23T05:09:28;99794.41;;;19.33;43.22
62544;BME280;48597;49.030;1.822;2023-04-23T05:11:54;99792.81;;;19.32;43.21
62544;BME280;48597;49.030;1.822;2023-04-23T05:14:19;99787.09;;;19.32;43.34
62544;BME280;48597;49.030;1.822;2023-04-23T05:16:45;99781.38;;;19.32;43.21
62544;BME280;48597;49.030;1.822;2023-04-23T05:19:10;99781.38;;;19.32;43.32
62544;BME280;48597;49.030;1.822;2023-04-23T05:21:36;99782.16;;;19.33;43.29
62544;BME280;48597;49.030;1.822;2023-04-23T05:24:01;99786.28;;;19.32;43.49
62544;BME280;48597;49.030;1.822;2023-04-23T05:26:26;99782.63;;;19.31;43.28
62544;BME280;48597;49.030;1.822;2023-04-23T05:28:52;99773.28;;;19.31;43.32
62544;BME280;48597;49.030;1.822;2023-04-23T05:31:17;99764.69;;;19.31;43.25
62544;BME280;48597;49.030;1.822;2023-04-23T05:33:42;99768.81;;;19.30;43.51
62544;BME280;48597;49.030;1.822;2023-04-23T05:36:09;99772.47;;;19.30;43.34
62544;BME280;48597;49.030;1.822;2023-04-23T05:38:35;99771.69;;;19.30;43.27
62544;BME280;48597;49.030;1.822;2023-04-23T05:41:00;99772.47;;;19.30;43.34
62544;BME280;48597;49.030;1.822;2023-04-23T05:43:26;99770.88;;;19.29;43.33
62544;BME280;48597;49.030;1.822;2023-04-23T05:45:51;99772.16;;;19.28;43.39
62544;BME280;48597;49.030;1.822;2023-04-23T05:48:16;99784.38;;;19.28;42.98
62544;BME280;48597;49.030;1.822;2023-04-23T05:50:42;99783.91;;;19.30;43.18
62544;BME280;48597;49.030;1.822;2023-04-23T05:53:07;99788.50;;;19.27;43.12
62544;BME280;48597;49.030;1.822;2023-04-23T05:55:33;99786.44;;;19.28;43.14
62544;BME280;48597;49.030;1.822;2023-04-23T05:57:58;99792.16;;;19.28;43.05
62544;BME280;48597;49.030;1.822;2023-04-23T06:00:23;99788.50;;;19.27;43.32
62544;BME280;48597;49.030;1.822;2023-04-23T06:02:49;99795.00;;;19.28;43.18
62544;BME280;48597;49.030;1.822;2023-04-23T06:05:14;99786.91;;;19.26;43.36
62544;BME280;48597;49.030;1.822;2023-04-23T06:07:41;99776.28;;;19.27;43.31
62544;BME280;48597;49.030;1.822;2023-04-23T06:10:06;99778.34;;;19.26;43.22
62544;BME280;48597;49.030;1.822;2023-04-23T06:12:32;99784.03;;;19.26;43.29
62544;BME280;48597;49.030;1.822;2023-04-23T06:14:57;99783.56;;;19.28;43.17
62544;BME280;48597;49.030;1.822;2023-04-23T06:17:23;99775.81;;;19.28;43.19
62544;BME280;48597;49.030;1.822;2023-04-23T06:19:48;99773.41;;;19.27;43.29
62544;BME280;48597;49.030;1.822;2023-04-23T06:22:13;99779.94;;;19.27;43.32
62544;BME280;48597;49.030;1.822;2023-04-23T06:24:39;99786.44;;;19.28;43.32
62544;BME280;48597;49.030;1.822;2023-04-23T06:27:04;99787.22;;;19.28;43.35
62544;BME280;48597;49.030;1.822;2023-04-23T06:29:29;99783.56;;;19.28;43.33
62544;BME280;48597;49.030;1.822;2023-04-23T06:31:55;99769.28;;;19.28;43.33
62544;BME280;48597;49.030;1.822;2023-04-23T06:34:21;99782.31;;;19.29;43.52
62544;BME280;48597;49.030;1.822;2023-04-23T06:36:47;99778.19;;;19.30;43.43
62544;BME280;48597;49.030;1.822;2023-04-23T06:39:12;99775.81;;;19.28;43.31
62544;BME280;48597;49.030;1.822;2023-04-23T06:41:37;99771.69;;;19.30;43.41
62544;BME280;48597;49.030;1.822;2023-04-23T06:44:03;99772.94;;;19.28;43.29
62544;BME280;48597;49.030;1.822;2023-04-23T06:46:28;99773.28;;;19.31;43.21
62544;BME280;48597;49.030;1.822;2023-04-23T06:48:54;99770.41;;;19.31;43.34
62544;BME280;48597;49.030;1.822;2023-04-23T06:51:19;99760.56;;;19.32;43.38
62544;BME280;48597;49.030;1.822;2023-04-23T06:53:45;99767.88;;;19.33;43.32
62544;BME280;48597;49.030;1.822;2023-04-23T06:56:11;99756.44;;;19.33;43.43
62544;BME280;48597;49.030;1.822;2023-04-23T06:58:37;99755.19;;;19.34;43.45
62544;BME280;48597;49.030;1.822;2023-04-23T07:01:03;99731.53;;;19.33;43.34
62544;BME280;48597;49.030;1.822;2023-04-23T07:03:29;99744.56;;;19.34;43.49
62544;BME280;48597;49.030;1.822;2023-04-23T07:05:56;99738.34;;;19.36;43.43
62544;BME280;48597;49.030;1.822;2023-04-23T07:08:21;99729.75;;;19.36;43.50
62544;BME280;48597;49.030;1.822;2023-04-23T07:10:47;99721.50;;;19.38;43.48
62544;BME280;48597;49.030;1.822;2023-04-23T07:13:12;99719.47;;;19.38;43.56
62544;BME280;48597;49.030;1.822;2023-04-23T07:15:38;99711.69;;;19.39;43.99
62544;BME280;48597;49.030;1.822;2023-04-23T07:18:04;99716.91;;;19.40;43.59
62544;BME280;48597;49.030;1.822;2023-04-23T07:20:30;99728.69;;;19.42;43.75
62544;BME280;48597;49.030;1.822;2023-04-23T07:22:57;99723.75;;;19.43;43.72
62544;BME280;48597;49.030;1.822;2023-04-23T07:25:23;99716.78;;;19.44;43.53
62544;BME280;48597;49.030;1.822;2023-04-23T07:27:49;99709.00;;;19.44;43.61
62544;BME280;48597;49.030;1.822;2023-04-23T07:30:14;99697.56;;;19.44;43.69
62544;BME280;48597;49.030;1.822;2023-04-23T07:32:40;99700.75;;;19.46;43.65
62544;BME280;48597;49.030;1.822;2023-04-23T07:35:06;99695.03;;;19.46;43.68
62544;BME280;48597;49.030;1.822;2023-04-23T07:37:32;99702.34;;;19.47;43.73
62544;BME280;48597;49.030;1.822;2023-04-23T07:39:57;99697.38;;;19.48;43.83
62544;BME280;48597;49.030;1.822;2023-04-23T07:42:24;99688.81;;;19.48;43.69
62544;BME280;48597;49.030;1.822;2023-04-23T07:44:50;99687.56;;;19.49;43.65
62544;BME280;48597;49.030;1.822;2023-04-23T07:47:15;99686.31;;;19.50;43.58
62544;BME280;48597;49.030;1.822;2023-04-23T07:49:40;99672.00;;;19.50;43.55
62544;BME280;48597;49.030;1.822;2023-04-23T07:52:06;99673.59;;;19.51;43.64
62544;BME280;48597;49.030;1.822;2023-04-23T07:54:32;99665.81;;;19.51;43.65
62544;BME280;48597;49.030;1.822;2023-04-23T07:56:57;99665.81;;;19.51;43.71
62544;BME280;48597;49.030;1.822;2023-04-23T07:59:22;99652.31;;;19.52;43.64
62544;BME280;48597;49.030;1.822;2023-04-23T08:01:48;99644.06;;;19.54;43.53
62544;BME280;48597;49.030;1.822;2023-04-23T08:04:13;99627.72;;;19.54;43.60
62544;BME280;48597;49.030;1.822;2023-04-23T08:06:38;99627.72;;;19.54;43.69
62544;BME280;48597;49.030;1.822;2023-04-23T08:09:04;99628.50;;;19.55;43.72
62544;BME280;48597;49.030;1.822;2023-04-23T08:11:33;99618.66;;;19.56;43.84
62544;BME280;48597;49.030;1.822;2023-04-23T08:13:58;99599.94;;;19.55;43.86
62544;BME280;48597;49.030;1.822;2023-04-23T08:16:25;99599.47;;;19.56;43.86
62544;BME280;48597;49.030;1.822;2023-04-23T08:18:51;99592.47;;;19.57;43.85
62544;BME280;48597;49.030;1.822;2023-04-23T08:21:16;99581.50;;;19.56;43.75
62544;BME280;48597;49.030;1.822;2023-04-23T08:23:41;99570.88;;;19.56;43.84
62544;BME280;48597;49.030;1.822;2023-04-23T08:26:07;99565.16;;;19.56;43.86
62544;BME280;48597;49.030;1.822;2023-04-23T08:28:32;99568.00;;;19.56;43.74
62544;BME280;48597;49.030;1.822;2023-04-23T08:30:57;99557.38;;;19.57;43.90
62544;BME280;48597;49.030;1.822;2023-04-23T08:33:23;99544.66;;;19.58;44.15
62544;BME280;48597;49.030;1.822;2023-04-23T08:35:48;99538.16;;;19.57;44.01
62544;BME280;48597;49.030;1.822;2023-04-23T08:38:13;99536.56;;;19.56;44.14
62544;BME280;48597;49.030;1.822;2023-04-23T08:40:41;99536.09;;;19.58;44.29
62544;BME280;48597;49.030;1.822;2023-04-23T08:43:15;99520.53;;;19.59;44.15
62544;BME280;48597;49.030;1.822;2023-04-23T08:45:45;99516.09;;;19.58;44.19
62544;BME280;48597;49.030;1.822;2023-04-23T08:48:11;99514.50;;;19.57;44.32
62544;BME280;48597;49.030;1.822;2023-04-23T08:50:37;99505.94;;;19.57;44.24
62544;BME280;48597;49.030;1.822;2023-04-23T08:53:06;99498.16;;;19.57;44.29
62544;BME280;48597;49.030;1.822;2023-04-23T08:55:33;99493.22;;;19.58;44.29
62544;BME280;48597;49.030;1.822;2023-04-23T08:57:59;99476.06;;;19.58;44.24
62544;BME280;48597;49.030;1.822;2023-04-23T09:00:25;99469.56;;;19.57;44.39
62544;BME280;48597;49.030;1.822;2023-04-23T09:02:51;99461.00;;;19.57;44.33
62544;BME280;48597;49.030;1.822;2023-04-23T09:05:17;99449.56;;;19.57;44.44
62544;BME280;48597;49.030;1.822;2023-04-23T09:07:42;99450.81;;;19.56;44.92
62544;BME280;48597;49.030;1.822;2023-04-23T09:10:09;99447.97;;;19.56;45.22
62544;BME280;48597;49.030;1.822;2023-04-23T09:12:36;99443.03;;;19.57;45.29
62544;BME280;48597;49.030;1.822;2023-04-23T09:15:03;99438.13;;;19.57;45.47
62544;BME280;48597;49.030;1.822;2023-04-23T09:17:35;99439.41;;;19.56;45.33
62544;BME280;48597;49.030;1.822;2023-04-23T09:20:02;99435.75;;;19.56;45.36
62544;BME280;48597;49.030;1.822;2023-04-23T09:22:37;99430.03;;;19.56;45.36
62544;BME280;48597;49.030;1.822;2023-04-23T09:25:03;99417.81;;;19.55;45.38
62544;BME280;48597;49.030;1.822;2023-04-23T09:27:30;99425.09;;;19.56;45.11
62544;BME280;48597;49.030;1.822;2023-04-23T09:29:55;99423.53;;;19.55;45.37
62544;BME280;48597;49.030;1.822;2023-04-23T09:32:30;99411.28;;;19.55;45.31
62544;BME280;48597;49.030;1.822;2023-04-23T09:34:56;99399.06;;;19.54;45.30
62544;BME280;48597;49.030;1.822;2023-04-23T09:37:24;99404.00;;;19.54;45.20
62544;BME280;48597;49.030;1.822;2023-04-23T09:39:50;99401.63;;;19.52;45.17
62544;BME280;48597;49.030;1.822;2023-04-23T09:42:22;99384.78;;;19.54;45.32
62544;BME280;48597;49.030;1.822;2023-04-23T09:45:02;99386.53;;;19.52;45.23
62544;BME280;48597;49.030;1.822;2023-04-23T09:47:33;99377.16;;;19.51;45.27
62544;BME280;48597;49.030;1.822;2023-04-23T09:49:59;99374.78;;;19.50;45.27
62544;BME280;48597;49.030;1.822;2023-04-23T09:52:25;99361.28;;;19.50;45.18
62544;BME280;48597;49.030;1.822;2023-04-23T09:54:51;99345.41;;;19.49;45.33
62544;BME280;48597;49.030;1.822;2023-04-23T09:57:16;99340.94;;;19.48;45.11
62544;BME280;48597;49.030;1.822;2023-04-23T09:59:42;99347.50;;;19.49;45.22
62544;BME280;48597;49.030;1.822;2023-04-23T10:02:08;99335.22;;;19.48;45.01
62544;BME280;48597;49.030;1.822;2023-04-23T10:04:34;99330.81;;;19.47;45.21
62544;BME280;48597;49.030;1.822;2023-04-23T10:07:01;99326.38;;;19.46;45.20
62544;BME280;48597;49.030;1.822;2023-04-23T10:09:28;99325.59;;;19.46;45.16
62544;BME280;48597;49.030;1.822;2023-04-23T10:11:58;99311.31;;;19.46;45.19
62544;BME280;48597;49.030;1.822;2023-04-23T10:14:25;99316.22;;;19.45;45.15
62544;BME280;48597;49.030;1.822;2023-04-23T10:16:52;99310.50;;;19.45;45.16
62544;BME280;48597;49.030;1.822;2023-04-23T10:19:21;99302.41;;;19.44;45.24
62544;BME280;48597;49.030;1.822;2023-04-23T10:21:57;99294.63;;;19.44;45.08
62544;BME280;48597;49.030;1.822;2023-04-23T10:24:28;99287.81;;;19.42;45.21
62544;BME280;48597;49.030;1.822;2023-04-23T10:26:59;99276.41;;;19.42;45.16
62544;BME280;48597;49.030;1.822;2023-04-23T10:29:34;99278.47;;;19.41;45.15
62544;BME280;48597;49.030;1.822;2023-04-23T10:32:03;99279.72;;;19.40;45.22
62544;BME280;48597;49.030;1.822;2023-04-23T10:34:30;99266.72;;;19.39;45.17
62544;BME280;48597;49.030;1.822;2023-04-23T10:36:57;99255.28;;;19.39;45.11
62544;BME280;48597;49.030;1.822;2023-04-23T10:39:27;99249.28;;;19.37;45.21
62544;BME280;48597;49.030;1.822;2023-04-23T10:41:54;99241.50;;;19.38;45.28
62544;BME280;48597;49.030;1.822;2023-04-23T10:44:20;99237.06;;;19.37;45.28
62544;BME280;48597;49.030;1.822;2023-04-23T10:46:52;99229.28;;;19.37;45.23
62544;BME280;48597;49.030;1.822;2023-04-23T10:49:18;99228.97;;;19.35;45.24
62544;BME280;48597;49.030;1.822;2023-04-23T10:51:47;99222.47;;;19.35;45.21
62544;BME280;48597;49.030;1.822;2023-04-23T10:54:13;99206.63;;;19.34;45.12
62544;BME280;48597;49.030;1.822;2023-04-23T10:56:40;99198.06;;;19.34;45.24
62544;BME280;48597;49.030;1.822;2023-04-23T10:59:19;99187.91;;;19.33;45.25
62544;BME280;48597;49.030;1.822;2023-04-23T11:01:46;99196.16;;;19.31;45.15
62544;BME280;48597;49.030;1.822;2023-04-23T11:04:23;99178.22;;;19.30;45.40
62544;BME280;48597;49.030;1.822;2023-04-23T11:09:37;99171.72;;;19.30;45.26
62544;BME280;48597;49.030;1.822;2023-04-23T11:12:06;99160.00;;;19.27;45.32
62544;BME280;48597;49.030;1.822;2023-04-23T11:17:10;99139.22;;;19.27;45.35
62544;BME280;48597;49.030;1.822;2023-04-23T11:19:37;99133.50;;;19.27;45.64
62544;BME280;48597;49.030;1.822;2023-04-23T11:22:13;99138.41;;;19.26;45.62
62544;BME280;48597;49.030;1.822;2023-04-23T11:24:41;99136.03;;;19.25;45.60
62544;BME280;48597;49.030;1.822;2023-04-23T11:27:13;99137.31;;;19.24;45.66
62544;BME280;48597;49.030;1.822;2023-04-23T11:29:40;99123.03;;;19.24;45.46
62544;BME280;48597;49.030;1.822;2023-04-23T11:32:07;99122.25;;;19.23;45.67
62544;BME280;48597;49.030;1.822;2023-04-23T11:34:38;99123.53;;;19.22;45.69
62544;BME280;48597;49.030;1.822;2023-04-23T11:37:04;99130.03;;;19.23;45.62
62544;BME280;48597;49.030;1.822;2023-04-23T11:39:30;99132.09;;;19.22;45.90
62544;BME280;48597;49.030;1.822;2023-04-23T11:41:55;99124.03;;;19.21;45.72
62544;BME280;48597;49.030;1.822;2023-04-23T11:44:23;99123.25;;;19.20;45.78
62544;BME280;48597;49.030;1.822;2023-04-23T11:46:49;99116.75;;;19.20;46.10
62544;BME280;48597;49.030;1.822;2023-04-23T11:49:15;99110.25;;;19.19;45.96
62544;BME280;48597;49.030;1.822;2023-04-23T11:51:42;99104.53;;;19.19;46.05
62544;BME280;48597;49.030;1.822;2023-04-23T11:54:08;99095.16;;;19.19;46.13
62544;BME280;48597;49.030;1.822;2023-04-23T11:56:34;99097.22;;;19.18;46.03
62544;BME280;48597;49.030;1.822;2023-04-23T11:59:01;99107.06;;;19.17;46.07
62544;BME280;48597;49.030;1.822;2023-04-23T12:04:12;99090.72;;;19.18;46.21
62544;BME280;48597;49.030;1.822;2023-04-23T12:06:39;99074.88;;;19.17;46.34
62544;BME280;48597;49.030;1.822;2023-04-23T12:09:05;99086.78;;;19.15;46.34
62544;BME280;48597;49.030;1.822;2023-04-23T12:11:30;99081.06;;;19.15;46.44
62544;BME280;48597;49.030;1.822;2023-04-23T12:13:56;99102.34;;;19.14;46.59
62544;BME280;48597;49.030;1.822;2023-04-23T12:16:33;99105.97;;;19.15;46.52
62544;BME280;48597;49.030;1.822;2023-04-23T12:19:00;99110.13;;;19.14;46.50
62544;BME280;48597;49.030;1.822;2023-04-23T12:21:25;99122.81;;;19.13;46.21
62544;BME280;48597;49.030;1.822;2023-04-23T12:23:55;99117.91;;;19.13;46.50
62544;BME280;48597;49.030;1.822;2023-04-23T12:26:20;99110.59;;;19.12;46.41
62544;BME280;48597;49.030;1.822;2023-04-23T12:28:50;99133.44;;;19.12;46.31
62544;BME280;48597;49.030;1.822;2023-04-23T12:31:22;99133.44;;;19.12;46.37
62544;BME280;48597;49.030;1.822;2023-04-23T12:34:05;99150.59;;;19.12;46.32
62544;BME280;48597;49.030;1.822;2023-04-23T12:36:31;99168.19;;;19.11;46.38
62544;BME280;48597;49.030;1.822;2023-04-23T12:39:32;99175.97;;;19.10;46.39
62544;BME280;48597;49.030;1.822;2023-04-23T12:42:01;99186.13;;;19.11;46.45
62544;BME280;48597;49.030;1.822;2023-04-23T12:44:29;99175.19;;;19.10;46.55
62544;BME280;48597;49.030;1.822;2023-04-23T12:46:59;99177.25;;;19.09;46.52
62544;BME280;48597;49.030;1.822;2023-04-23T12:49:28;99195.19;;;19.10;46.55
62544;BME280;48597;49.030;1.822;2023-04-23T12:51:58;99199.31;;;19.09;46.28
62544;BME280;48597;49.030;1.822;2023-04-23T12:54:26;99214.38;;;19.09;46.53
62544;BME280;48597;49.030;1.822;2023-04-23T12:56:52;99212.81;;;19.08;46.47
62544;BME280;48597;49.030;1.822;2023-04-23T12:59:17;99214.09;;;19.07;46.61
62544;BME280;48597;49.030;1.822;2023-04-23T13:01:43;99227.59;;;19.07;46.65
62544;BME280;48597;49.030;1.822;2023-04-23T13:04:08;99233.28;;;19.07;46.46